Time;durP1;ratioP1;P1;durP2;ratioP2;P2;SDS_P1;SDS_P2;PMS_P1;PMS_P2;Temp;Humidity;BMP_temperature;BMP_pressure;BME280_temperature;BME280_humidity;BME280_pressure;Samples;Min_cycle;Max_cycle;Signal;HPM_P1;HPM_P2
2021/04/06 00:00:14;;;;;;;1.10;0.90;;;;;;;;;;5042616;28;20225;-78
2021/04/06 00:03:32;;;;;;;0.87;0.87;;;;;;;;;;5060986;23;20229;-77
2021/04/06 00:06:58;;;;;;;1.20;1.10;;;;;;;;;;5007800;28;20304;-78
2021/04/06 00:10:13;;;;;;;0.80;0.80;;;;;;;;;;5097827;23;20212;-77
2021/04/06 00:13:39;;;;;;;1.13;1.00;;;;;;;;;;5092974;28;20176;-78
2021/04/06 00:16:42;;;;;;;1.10;1.10;;;;;;;;;;5053517;23;20654;-88
2021/04/06 00:19:37;;;;;;;0.90;0.90;;;;;;;;;;5033322;28;20229;-84
2021/04/06 00:22:38;;;;;;;1.10;1.00;;;;;;;;;;5039219;28;20230;-82
2021/04/06 00:25:43;;;;;;;1.30;1.20;;;;;;;;;;5140129;23;20296;-78
2021/04/06 00:29:32;;;;;;;1.20;1.10;;;;;;;;;;5040321;28;20261;-78
2021/04/06 00:33:06;;;;;;;1.20;1.10;;;;;;;;;;5053182;23;20229;-78
2021/04/06 00:36:32;;;;;;;1.30;1.20;;;;;;;;;;5039996;28;20191;-77
2021/04/06 00:43:38;;;;;;;1.50;1.30;;;;;;;;;;5075523;28;20225;-77
2021/04/06 00:47:21;;;;;;;1.30;1.20;;;;;;;;;;5093711;23;20216;-77
2021/04/06 00:50:48;;;;;;;2.47;1.20;;;;;;;;;;5035037;28;20249;-90
2021/04/06 00:54:23;;;;;;;4.47;2.20;;;;;;;;;;5025977;23;20235;-78
2021/04/06 00:57:35;;;;;;;1.70;1.20;;;;;;;;;;5003862;28;20252;-90
2021/04/06 01:00:31;;;;;;;1.27;1.00;;;;;;;;;;5010404;28;20223;-79
2021/04/06 01:03:32;;;;;;;1.27;1.10;;;;;;;;;;5011188;28;20223;-83
2021/04/06 01:06:28;;;;;;;1.10;0.90;;;;;;;;;;5000625;28;20211;-86
2021/04/06 01:09:31;;;;;;;2.30;1.00;;;;;;;;;;5001449;28;20230;-91
2021/04/06 01:12:23;;;;;;;1.73;1.03;;;;;;;;;;5000031;28;20230;-93
2021/04/06 01:15:18;;;;;;;2.03;1.03;;;;;;;;;;5000211;28;20560;-94
2021/04/06 01:18:03;;;;;;;3.23;1.30;;;;;;;;;;5002235;28;20227;-88
2021/04/06 01:20:54;;;;;;;1.90;1.00;;;;;;;;;;5003022;28;20234;-94
2021/04/06 01:23:56;;;;;;;1.47;1.27;;;;;;;;;;5001093;28;20227;-87
2021/04/06 01:26:42;;;;;;;1.80;1.20;;;;;;;;;;5000696;28;20223;-93
2021/04/06 01:29:34;;;;;;;2.43;1.10;;;;;;;;;;5004593;28;20243;-89
2021/04/06 01:32:25;;;;;;;2.57;1.30;;;;;;;;;;5007074;28;20207;-88
2021/04/06 01:35:22;;;;;;;1.87;1.27;;;;;;;;;;5025712;28;20231;-82
2021/04/06 01:38:25;;;;;;;1.30;1.20;;;;;;;;;;5005918;28;20227;-77
2021/04/06 01:41:37;;;;;;;2.93;1.30;;;;;;;;;;5016817;28;20233;-78
2021/04/06 01:45:11;;;;;;;2.73;1.17;;;;;;;;;;5018806;28;20203;-78
2021/04/06 01:48:40;;;;;;;1.40;1.20;;;;;;;;;;5046959;23;20229;-77
2021/04/06 01:52:26;;;;;;;2.53;1.10;;;;;;;;;;5049029;22;20221;-77
2021/04/06 01:55:41;;;;;;;1.27;1.00;;;;;;;;;;5062523;23;20228;-77
2021/04/06 01:59:21;;;;;;;1.77;1.00;;;;;;;;;;5110636;22;20236;-77
2021/04/06 02:02:32;;;;;;;1.77;0.90;;;;;;;;;;5063350;22;20301;-77
2021/04/06 02:06:18;;;;;;;1.47;0.80;;;;;;;;;;5054166;23;20232;-77
2021/04/06 02:09:57;;;;;;;0.83;0.83;;;;;;;;;;5074438;28;20208;-77
2021/04/06 02:13:02;;;;;;;2.33;1.00;;;;;;;;;;5090596;23;20312;-76
2021/04/06 02:16:23;;;;;;;1.60;0.90;;;;;;;;;;5035998;28;20278;-77
2021/04/06 02:19:48;;;;;;;2.07;1.00;;;;;;;;;;5020017;28;20235;-77
2021/04/06 02:23:20;;;;;;;1.83;0.87;;;;;;;;;;5010373;23;20241;-77
2021/04/06 02:26:56;;;;;;;2.80;0.90;;;;;;;;;;5037712;23;23166;-77
2021/04/06 02:30:34;;;;;;;1.40;0.87;;;;;;;;;;5059512;23;20293;-77
2021/04/06 02:34:19;;;;;;;0.80;0.70;;;;;;;;;;5075420;23;20225;-77
2021/04/06 02:37:57;;;;;;;2.73;1.10;;;;;;;;;;5041460;23;20232;-77
2021/04/06 02:41:56;;;;;;;1.50;0.80;;;;;;;;;;5062563;23;20225;-78
2021/04/06 02:45:18;;;;;;;1.47;0.80;;;;;;;;;;5031732;23;20234;-77
2021/04/06 02:48:56;;;;;;;0.70;0.63;;;;;;;;;;5052734;23;20244;-77
2021/04/06 02:52:31;;;;;;;1.60;1.00;;;;;;;;;;5009430;28;20195;-78
2021/04/06 02:56:16;;;;;;;1.47;0.87;;;;;;;;;;5040146;23;20236;-77
2021/04/06 03:00:06;;;;;;;1.00;0.90;;;;;;;;;;5005605;23;20227;-77
2021/04/06 03:03:44;;;;;;;1.30;0.80;;;;;;;;;;5012432;28;20283;-77
2021/04/06 03:07:35;;;;;;;1.13;0.90;;;;;;;;;;5006023;23;20226;-77
2021/04/06 03:15:34;;;;;;;2.30;1.17;;;;;;;;;;5087083;23;20271;-77
2021/04/06 03:19:16;;;;;;;1.73;0.90;;;;;;;;;;5105371;22;20235;-77
2021/04/06 03:23:19;;;;;;;2.40;1.00;;;;;;;;;;5080657;23;20259;-78
2021/04/06 03:27:12;;;;;;;1.87;0.80;;;;;;;;;;5082186;22;20249;-77
2021/04/06 03:30:38;;;;;;;1.73;0.80;;;;;;;;;;5174342;23;20267;-78
2021/04/06 03:34:41;;;;;;;2.60;1.00;;;;;;;;;;5061315;23;20225;-79
2021/04/06 03:42:37;;;;;;;2.23;1.07;;;;;;;;;;4986620;28;20165;-77
2021/04/06 03:46:31;;;;;;;1.83;0.93;;;;;;;;;;5075273;28;20205;-77
2021/04/06 03:50:08;;;;;;;1.80;0.97;;;;;;;;;;5081787;23;20305;-77
2021/04/06 03:53:50;;;;;;;1.33;0.90;;;;;;;;;;5090153;23;20272;-78
2021/04/06 04:05:24;;;;;;;2.63;1.23;;;;;;;;;;4955286;23;20245;-77
2021/04/06 04:09:06;;;;;;;1.30;0.97;;;;;;;;;;5117976;23;20771;-77
2021/04/06 04:12:51;;;;;;;1.60;1.20;;;;;;;;;;4936871;29;20293;-77
2021/04/06 04:16:58;;;;;;;2.53;1.30;;;;;;;;;;5219515;23;20222;-76
2021/04/06 04:20:50;;;;;;;2.70;1.37;;;;;;;;;;5039723;23;20232;-77
2021/04/06 04:24:29;;;;;;;1.97;1.10;;;;;;;;;;5094913;23;20229;-78
2021/04/06 04:31:45;;;;;;;2.13;1.40;;;;;;;;;;5154286;22;20218;-77
2021/04/06 04:42:18;;;;;;;1.30;1.20;;;;;;;;;;5019089;23;20233;-77
2021/04/06 04:46:15;;;;;;;1.70;1.30;;;;;;;;;;5062207;23;20236;31
2021/04/06 04:49:57;;;;;;;3.23;1.40;;;;;;;;;;5036925;23;20227;-77
2021/04/06 04:57:32;;;;;;;2.50;1.20;;;;;;;;;;5043171;28;20217;-77
2021/04/06 05:01:16;;;;;;;1.63;1.13;;;;;;;;;;5002865;23;20211;-78
2021/04/06 05:08:39;;;;;;;2.77;1.30;;;;;;;;;;5034493;23;20203;-78
2021/04/06 05:12:14;;;;;;;1.70;1.07;;;;;;;;;;5006528;28;20278;-77
2021/04/06 05:23:41;;;;;;;1.30;1.20;;;;;;;;;;5102973;23;20230;-78
2021/04/06 05:27:17;;;;;;;2.07;1.30;;;;;;;;;;5050470;23;20256;-77
2021/04/06 05:35:10;;;;;;;2.70;1.30;;;;;;;;;;5053084;23;20252;-78
2021/04/06 05:39:06;;;;;;;2.53;1.60;;;;;;;;;;5106909;23;20233;-79
2021/04/06 05:45:56;;;;;;;1.73;1.57;;;;;;;;;;5049256;23;20252;31
2021/04/06 05:53:24;;;;;;;2.90;2.00;;;;;;;;;;5152018;23;20223;-77
2021/04/06 05:57:26;;;;;;;2.50;2.00;;;;;;;;;;5163238;23;20188;-78
2021/04/06 06:01:06;;;;;;;3.13;1.80;;;;;;;;;;5125897;23;20226;-77
2021/04/06 06:04:52;;;;;;;3.40;1.77;;;;;;;;;;5048028;28;20193;-77
2021/04/06 06:08:44;;;;;;;3.60;1.90;;;;;;;;;;5050535;23;20294;-77
2021/04/06 06:11:22;;;;;;;1.80;1.70;;;;;;;;;;5048676;28;20185;-77
2021/04/06 06:14:53;;;;;;;3.70;2.13;;;;;;;;;;5094512;23;20219;-78
2021/04/06 06:18:30;;;;;;;2.17;2.00;;;;;;;;;;4166441;23;20225;-77
2021/04/06 06:21:47;;;;;;;2.00;1.80;;;;;;;;;;5063408;23;20232;-77
2021/04/06 06:26:01;;;;;;;2.27;1.90;;;;;;;;;;5229525;22;20241;-80
2021/04/06 06:33:35;;;;;;;1.90;1.80;;;;;;;;;;5211668;23;20261;-79
2021/04/06 06:37:32;;;;;;;2.73;2.03;;;;;;;;;;5038708;28;20251;-78
2021/04/06 06:40:35;;;;;;;3.53;2.20;;;;;;;;;;5111072;23;20226;-78
2021/04/06 06:44:30;;;;;;;2.10;1.90;;;;;;;;;;5028921;23;20229;-78
2021/04/06 06:48:28;;;;;;;3.47;2.43;;;;;;;;;;5231688;23;20224;-78
2021/04/06 06:52:21;;;;;;;2.97;2.67;;;;;;;;;;5068648;23;20770;-78
2021/04/06 06:55:24;;;;;;;4.20;2.60;;;;;;;;;;5048032;28;20259;-78
2021/04/06 06:58:58;;;;;;;3.47;2.73;;;;;;;;;;5041640;28;20191;-78
2021/04/06 07:02:25;;;;;;;7.30;3.03;;;;;;;;;;5047752;28;20214;-78
2021/04/06 07:05:29;;;;;;;3.10;2.83;;;;;;;;;;5030589;28;20218;-78
2021/04/06 07:08:04;;;;;;;4.00;3.07;;;;;;;;;;5037290;23;20230;-78
2021/04/06 07:11:00;;;;;;;3.70;3.00;;;;;;;;;;5018375;28;20230;-78
2021/04/06 07:13:35;;;;;;;3.40;3.10;;;;;;;;;;5031086;23;20229;-78
2021/04/06 07:19:27;;;;;;;4.00;2.80;;;;;;;;;;4971329;28;20225;-78
2021/04/06 07:22:27;;;;;;;3.80;2.87;;;;;;;;;;5014207;23;20241;-79
2021/04/06 07:25:46;;;;;;;4.30;2.90;;;;;;;;;;5055316;23;20250;-78
2021/04/06 07:29:27;;;;;;;3.07;2.77;;;;;;;;;;5056656;22;20309;-78
2021/04/06 07:32:55;;;;;;;4.27;2.80;;;;;;;;;;5034772;28;20265;-78
2021/04/06 07:37:03;;;;;;;3.13;2.40;;;;;;;;;;5041375;23;20233;-79
2021/04/06 07:40:24;;;;;;;2.50;2.30;;;;;;;;;;5033166;28;20732;-78
2021/04/06 07:43:18;;;;;;;3.20;2.17;;;;;;;;;;5034083;28;20238;-78
2021/04/06 07:47:14;;;;;;;3.97;2.40;;;;;;;;;;5042674;23;20179;-78
2021/04/06 07:54:48;;;;;;;5.67;2.53;;;;;;;;;;3936988;23;31573363;-79
2021/04/06 07:58:15;;;;;;;5.93;2.60;;;;;;;;;;5365384;23;20204;-78
2021/04/06 08:01:36;;;;;;;4.60;2.33;;;;;;;;;;5029778;23;20230;-78
2021/04/06 08:05:35;;;;;;;2.80;2.40;;;;;;;;;;5014503;28;20196;-78
2021/04/06 08:09:26;;;;;;;5.60;2.60;;;;;;;;;;4985925;23;20231;-78
2021/04/06 08:12:34;;;;;;;2.53;2.20;;;;;;;;;;5031440;23;20202;-78
2021/04/06 08:16:01;;;;;;;2.87;2.17;;;;;;;;;;5023711;23;20218;-78
2021/04/06 08:19:57;;;;;;;4.27;2.43;;;;;;;;;;5060998;23;20240;-79
2021/04/06 08:23:55;;;;;;;2.80;2.40;;;;;;;;;;5053080;28;20226;-78
2021/04/06 08:31:18;;;;;;;3.90;2.30;;;;;;;;;;4963247;23;20234;-78
2021/04/06 08:35:11;;;;;;;2.70;2.30;;;;;;;;;;5057812;23;20249;-77
2021/04/06 08:38:27;;;;;;;3.57;2.50;;;;;;;;;;4971706;29;20299;-78
2021/04/06 08:41:47;;;;;;;2.70;2.30;;;;;;;;;;4980201;28;20252;-79
2021/04/06 08:45:23;;;;;;;2.63;2.43;;;;;;;;;;4980712;23;20233;-78
2021/04/06 08:48:46;;;;;;;5.63;2.53;;;;;;;;;;5027393;23;20230;-78
2021/04/06 08:52:52;;;;;;;3.30;2.30;;;;;;;;;;5040725;23;20225;-79
2021/04/06 08:56:23;;;;;;;4.33;2.30;;;;;;;;;;5210619;23;20239;-78
2021/04/06 09:00:01;;;;;;;3.00;2.40;;;;;;;;;;5125669;23;20230;-78
2021/04/06 09:03:57;;;;;;;4.43;2.53;;;;;;;;;;5124509;23;20935;-79
2021/04/06 09:07:38;;;;;;;3.03;2.20;;;;;;;;;;5016722;23;20260;-78
2021/04/06 09:11:17;;;;;;;2.80;2.13;;;;;;;;;;5066634;23;21005;-79
2021/04/06 09:18:41;;;;;;;3.60;2.10;;;;;;;;;;5103355;23;20238;-78
2021/04/06 09:22:09;;;;;;;5.23;2.60;;;;;;;;;;5051460;23;20234;-78
2021/04/06 09:25:48;;;;;;;3.67;1.90;;;;;;;;;;5047288;23;20253;-78
2021/04/06 09:36:42;;;;;;;4.27;2.20;;;;;;;;;;5147793;23;20245;-79
2021/04/06 09:39:54;;;;;;;3.60;2.20;;;;;;;;;;5081282;22;20269;-78
2021/04/06 09:47:46;;;;;;;2.33;1.87;;;;;;;;;;5036624;23;20234;-78
2021/04/06 09:55:06;;;;;;;1.87;1.77;;;;;;;;;;5089788;23;20903;-79
2021/04/06 09:58:49;;;;;;;2.07;1.70;;;;;;;;;;5024246;23;20196;-78
2021/04/06 10:01:54;;;;;;;2.00;1.70;;;;;;;;;;5061788;23;20229;-78
2021/04/06 10:05:27;;;;;;;2.70;1.80;;;;;;;;;;5133159;23;20217;-78
2021/04/06 10:09:11;;;;;;;2.80;1.90;;;;;;;;;;5052351;23;20254;-78
2021/04/06 10:12:47;;;;;;;2.00;1.67;;;;;;;;;;5032351;23;20223;-78
2021/04/06 10:17:14;;;;;;;1.90;1.60;;;;;;;;;;5071021;23;20228;-78
2021/04/06 10:20:48;;;;;;;3.10;1.87;;;;;;;;;;5161201;22;20233;-79
2021/04/06 10:24:14;;;;;;;4.53;3.27;;;;;;;;;;5143902;23;20256;-79
2021/04/06 10:27:54;;;;;;;2.63;1.50;;;;;;;;;;5014585;23;20226;-77
2021/04/06 10:31:22;;;;;;;4.13;1.60;;;;;;;;;;5043140;23;20228;-78
2021/04/06 10:35:05;;;;;;;3.37;1.67;;;;;;;;;;5045134;23;20245;-78
2021/04/06 10:38:40;;;;;;;2.33;1.40;;;;;;;;;;5071658;23;20239;-78
2021/04/06 10:41:54;;;;;;;2.20;1.40;;;;;;;;;;5039552;23;20579;-79
2021/04/06 10:49:01;;;;;;;2.03;1.80;;;;;;;;;;5061435;23;20261;-77
2021/04/06 10:52:10;;;;;;;1.70;1.37;;;;;;;;;;5051151;23;20238;-79
2021/04/06 10:55:13;;;;;;;4.13;1.83;;;;;;;;;;5048871;23;20734;-78
2021/04/06 10:58:34;;;;;;;3.67;1.70;;;;;;;;;;5037548;23;20218;-79
2021/04/06 11:02:24;;;;;;;3.83;1.50;;;;;;;;;;5054862;28;20170;-78
2021/04/06 11:05:49;;;;;;;2.77;1.40;;;;;;;;;;5062203;23;20190;-79
2021/04/06 11:09:10;;;;;;;2.00;1.27;;;;;;;;;;5021072;23;20222;-78
2021/04/06 11:12:20;;;;;;;4.80;1.60;;;;;;;;;;5040831;23;20249;-78
2021/04/06 11:15:19;;;;;;;4.23;1.50;;;;;;;;;;5024522;28;20306;-78
2021/04/06 11:18:52;;;;;;;1.87;1.20;;;;;;;;;;5023765;23;20239;-78
2021/04/06 11:21:49;;;;;;;5.10;2.63;;;;;;;;;;5049928;23;20218;-78
2021/04/06 11:25:22;;;;;;;15.80;10.93;;;;;;;;;;4955541;29;20241;-78
2021/04/06 11:28:03;;;;;;;5.70;3.87;;;;;;;;;;4954395;29;20230;-79
2021/04/06 11:31:14;;;;;;;2.70;1.40;;;;;;;;;;4974859;23;20233;-78
2021/04/06 11:34:16;;;;;;;3.53;1.60;;;;;;;;;;5050245;28;20226;-79
2021/04/06 11:37:54;;;;;;;3.63;1.30;;;;;;;;;;5029475;28;20218;-79
2021/04/06 11:41:44;;;;;;;2.63;1.40;;;;;;;;;;5008167;28;20238;-79
2021/04/06 11:44:25;;;;;;;1.40;1.30;;;;;;;;;;4962496;28;20585;-78
2021/04/06 11:47:31;;;;;;;2.13;1.27;;;;;;;;;;4989361;28;20227;-79
2021/04/06 11:50:54;;;;;;;1.70;1.10;;;;;;;;;;4975270;28;20220;-79
2021/04/06 11:53:57;;;;;;;2.67;1.10;;;;;;;;;;4987328;28;20211;-79
2021/04/06 11:57:22;;;;;;;3.17;1.20;;;;;;;;;;5003465;23;20248;-79
2021/04/06 12:00:05;;;;;;;3.37;1.40;;;;;;;;;;5031033;28;20269;-78
2021/04/06 12:02:57;;;;;;;1.10;1.00;;;;;;;;;;5026722;28;20226;-78
2021/04/06 12:06:07;;;;;;;2.87;1.20;;;;;;;;;;5028996;28;20222;-78
2021/04/06 12:09:12;;;;;;;1.67;1.07;;;;;;;;;;5041677;28;20214;-79
2021/04/06 12:12:24;;;;;;;1.53;1.03;;;;;;;;;;5044843;28;20229;-78
2021/04/06 12:15:01;;;;;;;1.97;1.20;;;;;;;;;;5049637;23;20245;-79
2021/04/06 12:17:35;;;;;;;2.03;1.30;;;;;;;;;;5022668;28;20250;-79
2021/04/06 12:20:46;;;;;;;1.67;1.10;;;;;;;;;;5023187;28;20223;-79
2021/04/06 12:23:34;;;;;;;1.77;1.10;;;;;;;;;;5024234;28;20227;-79
2021/04/06 12:26:09;;;;;;;1.43;1.30;;;;;;;;;;5040019;22;20244;-79
2021/04/06 12:29:17;;;;;;;1.40;1.13;;;;;;;;;;5009526;28;20211;-79
2021/04/06 12:32:07;;;;;;;1.70;1.10;;;;;;;;;;5026582;28;20251;-79
2021/04/06 12:34:50;;;;;;;1.67;1.03;;;;;;;;;;5024190;28;20183;-79
2021/04/06 12:37:36;;;;;;;1.10;0.90;;;;;;;;;;5043112;23;20229;-78
2021/04/06 12:40:28;;;;;;;1.60;1.20;;;;;;;;;;5047050;28;20220;-78
2021/04/06 12:43:41;;;;;;;1.47;1.10;;;;;;;;;;5123012;23;20262;-79
2021/04/06 12:46:25;;;;;;;2.40;1.00;;;;;;;;;;5003410;28;20235;-79
2021/04/06 12:49:35;;;;;;;1.00;0.90;;;;;;;;;;5010831;23;20651;-79
2021/04/06 12:52:21;;;;;;;2.43;1.27;;;;;;;;;;4984790;28;20238;-78
2021/04/06 12:54:50;;;;;;;1.10;0.90;;;;;;;;;;5008562;28;20222;-79
2021/04/06 12:58:04;;;;;;;4.23;1.07;;;;;;;;;;5009871;28;20230;-79
2021/04/06 13:01:03;;;;;;;2.17;1.03;;;;;;;;;;5011121;28;20228;-79
2021/04/06 13:03:50;;;;;;;1.10;0.90;;;;;;;;;;5016553;23;20204;-78
2021/04/06 13:07:20;;;;;;;0.90;0.90;;;;;;;;;;5015875;23;20251;-78
2021/04/06 13:10:09;;;;;;;1.67;1.10;;;;;;;;;;4987461;28;20212;-79
2021/04/06 13:13:17;;;;;;;1.37;0.90;;;;;;;;;;4986655;28;20247;-78
2021/04/06 13:16:02;;;;;;;1.53;0.97;;;;;;;;;;4989572;28;20291;-79
2021/04/06 13:18:58;;;;;;;1.00;0.90;;;;;;;;;;5028919;23;21038;-79
2021/04/06 13:22:24;;;;;;;1.03;0.90;;;;;;;;;;5030920;23;20202;-78
2021/04/06 13:25:51;;;;;;;1.27;0.93;;;;;;;;;;5057549;23;20206;-79
2021/04/06 13:29:06;;;;;;;2.30;1.13;;;;;;;;;;4984363;23;20288;-78
2021/04/06 13:31:54;;;;;;;2.47;1.20;;;;;;;;;;5031930;28;20218;-79
2021/04/06 13:35:10;;;;;;;2.00;0.83;;;;;;;;;;5008314;28;20288;-79
2021/04/06 13:37:55;;;;;;;2.20;1.30;;;;;;;;;;5030711;28;20206;-79
2021/04/06 13:40:37;;;;;;;1.43;1.23;;;;;;;;;;5026888;28;20599;-79
2021/04/06 13:43:29;;;;;;;2.33;1.63;;;;;;;;;;5027794;28;20233;-79
2021/04/06 13:46:18;;;;;;;3.90;1.87;;;;;;;;;;5027543;28;20287;-78
2021/04/06 13:49:07;;;;;;;1.77;1.47;;;;;;;;;;5008877;28;20227;-78
2021/04/06 13:51:53;;;;;;;1.90;1.60;;;;;;;;;;5012786;28;20285;-79
2021/04/06 13:54:51;;;;;;;2.17;1.50;;;;;;;;;;5028203;28;20285;-79
2021/04/06 13:57:27;;;;;;;2.00;1.80;;;;;;;;;;5030544;28;20191;-78
2021/04/06 14:00:03;;;;;;;2.87;2.10;;;;;;;;;;5028948;28;20235;-78
2021/04/06 14:02:49;;;;;;;2.87;1.67;;;;;;;;;;5037870;23;20218;-80
2021/04/06 14:05:36;;;;;;;2.73;2.20;;;;;;;;;;5032029;28;20203;-79
2021/04/06 14:08:08;;;;;;;2.57;2.30;;;;;;;;;;5004326;28;20214;-78
2021/04/06 14:11:02;;;;;;;2.77;2.17;;;;;;;;;;5041824;23;20241;-79
2021/04/06 14:13:47;;;;;;;2.47;2.27;;;;;;;;;;5053146;28;20283;-78
2021/04/06 14:16:36;;;;;;;2.87;2.10;;;;;;;;;;5049853;28;20197;-78
2021/04/06 14:19:16;;;;;;;3.30;2.10;;;;;;;;;;5055881;23;20261;-78
2021/04/06 14:22:11;;;;;;;2.40;2.00;;;;;;;;;;5035392;28;20319;-78
2021/04/06 14:25:36;;;;;;;3.30;2.00;;;;;;;;;;5039158;23;20191;-78
2021/04/06 14:31:25;;;;;;;4.40;2.20;;;;;;;;;;5033329;28;20656;-78
2021/04/06 14:34:08;;;;;;;3.97;2.30;;;;;;;;;;5031873;28;20225;-78
2021/04/06 14:37:08;;;;;;;2.30;1.70;;;;;;;;;;5039304;28;20241;-78
2021/04/06 14:40:17;;;;;;;2.33;1.83;;;;;;;;;;5028334;28;20198;-78
2021/04/06 14:43:14;;;;;;;2.43;1.93;;;;;;;;;;5027879;28;20225;-78
2021/04/06 14:45:58;;;;;;;1.93;1.83;;;;;;;;;;5029046;28;20285;-80
2021/04/06 14:48:51;;;;;;;2.67;2.00;;;;;;;;;;5026325;28;20697;-78
2021/04/06 14:51:35;;;;;;;3.67;2.17;;;;;;;;;;5007007;23;20221;-79
2021/04/06 14:54:13;;;;;;;2.80;2.27;;;;;;;;;;4977118;23;20237;-79
2021/04/06 14:56:58;;;;;;;2.60;1.93;;;;;;;;;;4991274;28;20228;-78
2021/04/06 15:00:11;;;;;;;3.20;2.23;;;;;;;;;;5008611;28;20227;-78
2021/04/06 15:03:42;;;;;;;3.37;1.97;;;;;;;;;;4982679;28;20284;-78
2021/04/06 15:09:45;;;;;;;2.53;1.80;;;;;;;;;;4969935;28;20262;-79
2021/04/06 15:12:50;;;;;;;2.30;1.77;;;;;;;;;;4956113;28;20244;-79
2021/04/06 15:16:08;;;;;;;2.87;1.67;;;;;;;;;;5001066;23;20202;-80
2021/04/06 15:19:07;;;;;;;3.10;1.90;;;;;;;;;;5010766;28;20254;-79
2021/04/06 15:22:08;;;;;;;2.90;1.97;;;;;;;;;;5045714;23;20213;-78
2021/04/06 15:24:45;;;;;;;2.17;1.60;;;;;;;;;;5023745;23;20250;-80
2021/04/06 15:27:22;;;;;;;2.07;1.60;;;;;;;;;;5012498;28;20222;-79
2021/04/06 15:30:02;;;;;;;2.10;1.57;;;;;;;;;;4970113;28;20227;-78
2021/04/06 15:32:56;;;;;;;2.10;1.70;;;;;;;;;;4959458;28;20207;-79
2021/04/06 15:36:08;;;;;;;3.03;2.00;;;;;;;;;;4990246;28;20283;-78
2021/04/06 15:38:54;;;;;;;2.40;1.60;;;;;;;;;;4991696;28;20208;-79
2021/04/06 15:42:16;;;;;;;2.13;1.60;;;;;;;;;;4991701;28;20239;-79
2021/04/06 15:45:27;;;;;;;1.50;1.40;;;;;;;;;;5050170;28;20245;-80
2021/04/06 15:48:00;;;;;;;2.10;1.60;;;;;;;;;;5034253;28;20502;-81
2021/04/06 15:50:40;;;;;;;4.17;1.77;;;;;;;;;;5049810;28;20716;-79
2021/04/06 15:53:54;;;;;;;2.67;1.60;;;;;;;;;;5057193;23;20284;-79
2021/04/06 15:56:45;;;;;;;2.67;1.57;;;;;;;;;;5050416;28;20233;-80
2021/04/06 15:59:54;;;;;;;2.57;1.40;;;;;;;;;;5047281;28;20249;-81
2021/04/06 16:02:57;;;;;;;1.50;1.40;;;;;;;;;;5005619;23;20218;-79
2021/04/06 16:06:08;;;;;;;2.53;1.40;;;;;;;;;;5068852;28;20225;-79
2021/04/06 16:09:10;;;;;;;2.23;1.40;;;;;;;;;;5067606;28;20221;-80
2021/04/06 16:13:06;;;;;;;2.30;1.70;;;;;;;;;;5069338;23;20226;-79
2021/04/06 16:15:59;;;;;;;1.63;1.50;;;;;;;;;;5044447;28;20222;-79
2021/04/06 16:19:07;;;;;;;2.87;1.40;;;;;;;;;;5039694;23;20309;-79
2021/04/06 16:22:17;;;;;;;2.13;1.40;;;;;;;;;;5027092;28;20224;-79
2021/04/06 16:25:30;;;;;;;1.30;1.20;;;;;;;;;;5024935;28;20226;-79
2021/04/06 16:28:19;;;;;;;1.57;1.13;;;;;;;;;;5111035;23;20230;-80
2021/04/06 16:31:45;;;;;;;3.20;1.40;;;;;;;;;;5051440;23;20222;-79
2021/04/06 16:34:30;;;;;;;2.13;1.20;;;;;;;;;;5046449;28;20485;-78
2021/04/06 16:37:14;;;;;;;2.10;1.50;;;;;;;;;;5047773;28;20626;-78
2021/04/06 16:40:05;;;;;;;1.53;1.43;;;;;;;;;;5051251;28;20222;-78
2021/04/06 16:43:07;;;;;;;1.97;1.40;;;;;;;;;;5048414;28;20245;-78
2021/04/06 16:45:47;;;;;;;1.13;1.10;;;;;;;;;;5043222;28;20222;-78
2021/04/06 16:48:30;;;;;;;1.97;1.83;;;;;;;;;;5024528;28;20633;-78
2021/04/06 16:51:42;;;;;;;1.40;1.30;;;;;;;;;;5043071;28;20712;-78
2021/04/06 16:54:38;;;;;;;2.97;1.03;;;;;;;;;;5048781;28;20252;-79
2021/04/06 16:57:28;;;;;;;2.07;0.90;;;;;;;;;;5049011;23;20231;-78
2021/04/06 17:00:15;;;;;;;1.40;1.17;;;;;;;;;;5033986;23;20265;-79
2021/04/06 17:06:13;;;;;;;2.40;1.30;;;;;;;;;;4951369;29;20568;-78
2021/04/06 17:08:46;;;;;;;1.60;1.20;;;;;;;;;;4970836;29;20215;-78
2021/04/06 17:11:49;;;;;;;1.80;1.00;;;;;;;;;;5057484;23;20288;-79
2021/04/06 17:14:56;;;;;;;1.47;1.30;;;;;;;;;;5047041;23;20302;-78
2021/04/06 17:17:44;;;;;;;1.23;1.10;;;;;;;;;;5067171;23;20218;-79
2021/04/06 17:21:03;;;;;;;3.20;1.30;;;;;;;;;;5030721;23;20232;-79
2021/04/06 17:23:53;;;;;;;1.40;1.10;;;;;;;;;;5034218;28;20249;-79
2021/04/06 17:26:54;;;;;;;2.17;1.20;;;;;;;;;;5054647;23;20230;-78
2021/04/06 17:30:01;;;;;;;1.67;1.20;;;;;;;;;;5007895;23;20316;-78
2021/04/06 17:32:37;;;;;;;1.80;1.70;;;;;;;;;;5011330;28;20218;-78
2021/04/06 17:35:35;;;;;;;3.00;1.83;;;;;;;;;;5029554;28;20230;-79
2021/04/06 17:38:31;;;;;;;2.43;2.20;;;;;;;;;;5074334;23;20222;-78
2021/04/06 17:41:21;;;;;;;4.07;2.20;;;;;;;;;;5058898;23;20297;-78
2021/04/06 17:44:08;;;;;;;2.30;2.10;;;;;;;;;;5046878;28;20238;-79
2021/04/06 17:47:00;;;;;;;7.10;4.20;;;;;;;;;;5054868;23;20215;-78
2021/04/06 17:49:56;;;;;;;7.10;4.90;;;;;;;;;;5030011;28;20199;-78
2021/04/06 17:52:54;;;;;;;9.80;4.90;;;;;;;;;;5044040;28;20210;-78
2021/04/06 17:55:52;;;;;;;2.93;2.57;;;;;;;;;;5047429;28;20672;-79
2021/04/06 17:59:03;;;;;;;2.80;2.20;;;;;;;;;;5044778;28;20705;-78
2021/04/06 18:02:02;;;;;;;3.90;2.50;;;;;;;;;;5051956;23;20229;-78
2021/04/06 18:05:30;;;;;;;2.33;2.10;;;;;;;;;;5060016;22;20210;-78
2021/04/06 18:08:43;;;;;;;2.17;1.97;;;;;;;;;;5023977;23;20207;-78
2021/04/06 18:12:02;;;;;;;3.10;2.30;;;;;;;;;;5032623;28;20187;-78
2021/04/06 18:14:49;;;;;;;3.07;2.30;;;;;;;;;;5008898;28;20215;-79
2021/04/06 18:17:24;;;;;;;3.00;2.33;;;;;;;;;;5036397;23;20236;-77
2021/04/06 18:20:29;;;;;;;4.23;2.93;;;;;;;;;;5031068;23;20228;-79
2021/04/06 18:26:49;;;;;;;2.73;2.47;;;;;;;;;;5040281;23;20222;-78
2021/04/06 18:29:59;;;;;;;2.73;2.47;;;;;;;;;;5057271;28;20162;-77
2021/04/06 18:32:42;;;;;;;2.90;2.60;;;;;;;;;;5060745;23;20214;-78
2021/04/06 18:35:23;;;;;;;2.93;2.63;;;;;;;;;;5034956;28;20230;-78
2021/04/06 18:37:57;;;;;;;5.03;2.67;;;;;;;;;;5031655;28;20230;-78
2021/04/06 18:41:14;;;;;;;2.60;2.40;;;;;;;;;;5057806;23;20229;-78
2021/04/06 18:43:47;;;;;;;3.63;2.77;;;;;;;;;;5048140;23;20227;-78
2021/04/06 18:46:57;;;;;;;4.97;3.23;;;;;;;;;;5017388;23;20213;-78
2021/04/06 18:49:53;;;;;;;3.90;3.00;;;;;;;;;;5019390;23;20254;-78
2021/04/06 18:52:43;;;;;;;2.70;2.47;;;;;;;;;;5033180;23;20215;-77
2021/04/06 18:56:03;;;;;;;3.90;2.90;;;;;;;;;;5038502;28;20203;-77
2021/04/06 18:58:56;;;;;;;4.30;3.00;;;;;;;;;;5034417;23;20209;-78
2021/04/06 19:01:34;;;;;;;4.07;2.80;;;;;;;;;;5050879;23;20245;-78
2021/04/06 19:04:30;;;;;;;4.00;2.80;;;;;;;;;;5026909;23;20225;-78
2021/04/06 19:07:28;;;;;;;2.77;2.57;;;;;;;;;;5065634;23;20231;-77
2021/04/06 19:14:20;;;;;;;4.27;2.63;;;;;;;;;;5036570;23;20222;-77
2021/04/06 19:17:11;;;;;;;3.40;2.50;;;;;;;;;;5133488;23;20222;-77
2021/04/06 19:20:08;;;;;;;3.43;2.40;;;;;;;;;;5055860;23;20222;-77
2021/04/06 19:23:32;;;;;;;2.27;1.90;;;;;;;;;;5071725;23;20307;-77
2021/04/06 19:26:59;;;;;;;3.40;1.70;;;;;;;;;;5056090;23;20194;-77
2021/04/06 19:30:19;;;;;;;2.17;1.80;;;;;;;;;;5018638;28;20238;-77
2021/04/06 19:32:55;;;;;;;1.73;1.63;;;;;;;;;;5019354;28;20247;-77
2021/04/06 19:35:46;;;;;;;2.47;1.63;;;;;;;;;;5030134;28;20241;-77
2021/04/06 19:38:22;;;;;;;1.60;1.50;;;;;;;;;;5057559;23;20234;-77
2021/04/06 19:41:15;;;;;;;2.00;1.67;;;;;;;;;;5063563;28;20256;-77
2021/04/06 19:44:10;;;;;;;2.47;1.60;;;;;;;;;;5067367;22;20229;-77
2021/04/06 19:47:05;;;;;;;1.93;1.50;;;;;;;;;;5061960;23;20190;-77
2021/04/06 19:50:55;;;;;;;2.13;1.87;;;;;;;;;;5063261;22;20272;-77
2021/04/06 19:53:41;;;;;;;2.10;1.70;;;;;;;;;;5077509;23;20210;31
2021/04/06 19:56:11;;;;;;;3.10;1.90;;;;;;;;;;4991162;28;20215;-77
2021/04/06 19:59:14;;;;;;;2.20;1.90;;;;;;;;;;4988274;28;20225;-77
2021/04/06 20:05:49;;;;;;;3.10;1.70;;;;;;;;;;5038880;23;20227;-77
2021/04/06 20:09:41;;;;;;;1.93;1.70;;;;;;;;;;5059857;23;20234;-77
2021/04/06 20:12:59;;;;;;;2.63;1.60;;;;;;;;;;5061473;23;20540;-77
2021/04/06 20:20:16;;;;;;;2.87;1.60;;;;;;;;;;5040825;23;20241;-77
2021/04/06 20:23:35;;;;;;;1.80;1.40;;;;;;;;;;5030172;23;20226;-77
2021/04/06 20:27:24;;;;;;;1.37;1.27;;;;;;;;;;5022702;23;20219;-78
2021/04/06 20:30:35;;;;;;;1.37;1.10;;;;;;;;;;5047221;23;20201;-77
2021/04/06 20:37:37;;;;;;;1.60;1.50;;;;;;;;;;5036659;28;20174;-76
2021/04/06 20:40:49;;;;;;;3.27;1.70;;;;;;;;;;5039455;28;20246;-77
2021/04/06 20:43:53;;;;;;;1.90;1.60;;;;;;;;;;5131756;23;20228;-77
2021/04/06 20:46:41;;;;;;;3.37;1.67;;;;;;;;;;5059213;23;20628;-78
2021/04/06 20:49:27;;;;;;;2.07;1.57;;;;;;;;;;5027995;28;20292;-77
2021/04/06 20:52:31;;;;;;;1.77;1.50;;;;;;;;;;5030894;28;20231;-77
2021/04/06 20:55:39;;;;;;;2.33;1.73;;;;;;;;;;5046492;28;20211;-78
2021/04/06 20:58:46;;;;;;;2.80;1.93;;;;;;;;;;5046363;28;20217;-77
2021/04/06 21:01:48;;;;;;;3.30;2.10;;;;;;;;;;5050766;28;20210;-78
2021/04/06 21:05:01;;;;;;;3.03;2.13;;;;;;;;;;5041474;28;20211;-78
2021/04/06 21:07:49;;;;;;;2.23;2.00;;;;;;;;;;5033198;28;20205;-78
2021/04/06 21:10:57;;;;;;;3.63;2.27;;;;;;;;;;5041418;28;20229;-77
2021/04/06 21:13:51;;;;;;;2.73;2.20;;;;;;;;;;5052033;28;20214;-77
2021/04/06 21:16:44;;;;;;;3.47;2.00;;;;;;;;;;5010783;28;20245;-78
2021/04/06 21:20:03;;;;;;;2.30;2.00;;;;;;;;;;5064546;23;20233;-78